Terminal Aerodrome Forecast
Issued by NWS

Home | Current Version | Previous Version | Graphics & Text | Print | Product List | Glossary On
Versions: 1 2 3 4 5 6 7 8 9 10 11 12 13 14 15 16
156
FTUS43 KMPX 091731
TAFRWF
TAF
KRWF 091731Z 0918/1018 30006KT 6SM -SN BKN010
     FM091900 30006KT P6SM SCT015 BKN070
     FM100200 32005KT P6SM SCT020 OVC070
     FM101700 09004KT 4SM -SN BKN025 OVC040=

USA.gov is the U.S. government's official web portal to all federal, state and local government web resources and services.